Terminal Aerodrome Forecast
Issued by NWS

Home | Current Version | Previous Version | Text Only | Print | Product List | Glossary On
Versions: 1 2 3 4 5 6 7 8 9 10 11 12 13 14 15 16 17 18 19 20 21 22 23
000
FTUS43 KGRR 230500 RRA
TAFMKG
TAF
KMKG 230551Z 2306/2406 11005KT P6SM SCT025
     FM230900 10005KT 5SM BR BKN025
     FM231100 09004KT 3SM BR BKN020
     FM231300 10006KT 5SM BR BKN030
     FM231600 12007KT 6SM HZ BKN035=

USA.gov is the U.S. government's official web portal to all federal, state and local government web resources and services.